createdAt,value
2017-07-17T00:00:00.364Z,0
2017-07-17T00:00:26.516Z,0
2017-07-17T00:00:52.646Z,0
2017-07-17T00:01:18.794Z,0
2017-07-17T00:01:44.946Z,0
2017-07-17T00:02:11.098Z,0
2017-07-17T00:02:37.236Z,0
2017-07-17T00:03:03.389Z,0
2017-07-17T00:03:29.530Z,0
2017-07-17T00:03:55.660Z,0
2017-07-17T00:04:21.817Z,0
2017-07-17T00:04:47.959Z,0
2017-07-17T00:05:14.095Z,0
2017-07-17T00:05:40.246Z,0
2017-07-17T00:06:06.395Z,0
2017-07-17T00:06:32.527Z,0
2017-07-17T00:06:58.675Z,0
2017-07-17T00:07:24.825Z,0
2017-07-17T00:07:50.964Z,0
2017-07-17T00:08:17.103Z,0
2017-07-17T00:08:43.239Z,0
2017-07-17T00:09:09.393Z,0
2017-07-17T00:09:35.541Z,0
2017-07-17T00:10:01.686Z,0
2017-07-17T00:10:27.833Z,0
2017-07-17T00:10:53.985Z,0
2017-07-17T00:11:20.114Z,0
2017-07-17T00:11:46.259Z,0
2017-07-17T00:12:12.409Z,0
2017-07-17T00:12:38.549Z,0
2017-07-17T00:13:04.688Z,0
2017-07-17T00:13:30.835Z,0
2017-07-17T00:13:56.979Z,0
2017-07-17T00:14:23.133Z,0
2017-07-17T00:14:49.264Z,0
2017-07-17T00:15:15.411Z,0
2017-07-17T00:15:41.564Z,0
2017-07-17T00:16:07.696Z,0
2017-07-17T00:16:33.837Z,0
2017-07-17T00:16:59.991Z,0
2017-07-17T00:17:26.156Z,0
2017-07-17T00:17:52.288Z,0
2017-07-17T00:18:18.444Z,0
2017-07-17T00:18:44.583Z,0
2017-07-17T00:19:10.733Z,0
2017-07-17T00:19:36.867Z,0
2017-07-17T00:20:03.011Z,0
2017-07-17T00:20:29.159Z,0
2017-07-17T00:20:55.298Z,0
2017-07-17T00:21:21.432Z,0
2017-07-17T00:21:47.587Z,0
2017-07-17T00:22:13.750Z,0
2017-07-17T00:22:39.884Z,0
2017-07-17T00:23:06.038Z,0
2017-07-17T00:23:32.184Z,0
2017-07-17T00:23:58.318Z,0
2017-07-17T00:24:24.463Z,0
2017-07-17T00:24:50.615Z,0
2017-07-17T00:25:16.749Z,0
2017-07-17T00:25:42.894Z,0
2017-07-17T00:26:09.047Z,0
2017-07-17T00:26:35.181Z,0
2017-07-17T00:27:01.324Z,0
2017-07-17T00:27:27.474Z,0
2017-07-17T00:27:53.613Z,0
2017-07-17T00:28:19.747Z,0
2017-07-17T00:28:45.905Z,0
2017-07-17T00:29:12.046Z,0
2017-07-17T00:29:38.179Z,0
2017-07-17T00:30:04.330Z,0
2017-07-17T00:30:30.471Z,0
2017-07-17T00:30:56.621Z,0
2017-07-17T00:31:22.758Z,0
2017-07-17T00:31:48.895Z,0
2017-07-17T00:32:15.050Z,0
2017-07-17T00:32:41.194Z,0
2017-07-17T00:33:07.326Z,0
2017-07-17T00:33:33.480Z,0
2017-07-17T00:33:59.628Z,0
2017-07-17T00:34:25.761Z,0
2017-07-17T00:34:51.906Z,0
2017-07-17T00:35:18.061Z,0
2017-07-17T00:35:44.198Z,0
2017-07-17T00:36:10.344Z,0
2017-07-17T00:36:36.481Z,0
2017-07-17T00:37:02.631Z,0
2017-07-17T00:37:28.774Z,0
2017-07-17T00:37:54.910Z,0
2017-07-17T00:38:21.057Z,0
2017-07-17T00:38:47.208Z,0
2017-07-17T00:39:13.344Z,0
2017-07-17T00:39:39.487Z,0
2017-07-17T00:40:05.643Z,0
2017-07-17T00:40:31.786Z,0
2017-07-17T00:40:57.920Z,0
2017-07-17T00:41:24.058Z,0
2017-07-17T00:41:50.207Z,0
2017-07-17T00:42:16.357Z,0
2017-07-17T00:42:42.512Z,0
2017-07-17T00:43:08.654Z,0
2017-07-17T00:43:34.804Z,0
2017-07-17T00:44:00.941Z,0
2017-07-17T00:44:27.084Z,0
2017-07-17T00:44:53.234Z,0
2017-07-17T00:45:19.369Z,0
2017-07-17T00:45:45.505Z,0
2017-07-17T00:46:11.659Z,0
2017-07-17T00:46:37.801Z,0
2017-07-17T00:47:03.951Z,0
2017-07-17T00:47:30.085Z,0
2017-07-17T00:47:56.229Z,0
2017-07-17T00:48:22.379Z,0
2017-07-17T00:48:48.517Z,0
2017-07-17T00:49:14.650Z,0
2017-07-17T00:49:40.805Z,0
2017-07-17T00:50:06.945Z,0
2017-07-17T00:50:33.077Z,0
2017-07-17T00:50:59.230Z,0
2017-07-17T00:51:25.380Z,0
2017-07-17T00:51:51.514Z,0
2017-07-17T00:52:17.660Z,0
2017-07-17T00:52:43.790Z,0
2017-07-17T00:53:09.942Z,0
2017-07-17T00:53:36.084Z,0
2017-07-17T00:54:02.219Z,0
2017-07-17T00:54:28.373Z,0
2017-07-17T00:54:54.517Z,0
2017-07-17T00:55:20.654Z,0
2017-07-17T00:55:46.800Z,0
2017-07-17T00:56:12.952Z,0
2017-07-17T00:56:39.084Z,0
2017-07-17T00:57:05.233Z,0
2017-07-17T00:57:31.386Z,0
2017-07-17T00:57:57.524Z,0
2017-07-17T00:58:23.670Z,0
2017-07-17T00:58:49.806Z,0
2017-07-17T00:59:15.955Z,0
2017-07-17T00:59:42.110Z,0
2017-07-17T01:00:08.241Z,0
2017-07-17T01:00:34.383Z,0
2017-07-17T01:01:00.533Z,0
2017-07-17T01:01:26.668Z,0
2017-07-17T01:01:52.812Z,0
2017-07-17T01:02:18.963Z,0
2017-07-17T01:02:45.103Z,0
2017-07-17T01:03:11.239Z,0
2017-07-17T01:03:37.389Z,0
2017-07-17T01:04:03.530Z,0
2017-07-17T01:04:29.680Z,0
2017-07-17T01:04:55.818Z,0
2017-07-17T01:05:21.961Z,0
2017-07-17T01:05:48.111Z,0
2017-07-17T01:06:14.250Z,0
2017-07-17T01:06:40.388Z,0
2017-07-17T01:07:06.540Z,0
2017-07-17T01:07:32.684Z,0
2017-07-17T01:07:58.817Z,0
2017-07-17T01:08:24.970Z,0
2017-07-17T01:08:51.118Z,0
2017-07-17T01:09:17.255Z,0
2017-07-17T01:09:43.406Z,0
2017-07-17T01:10:09.555Z,0
2017-07-17T01:10:35.687Z,0
2017-07-17T01:11:01.827Z,0
2017-07-17T01:11:27.977Z,0
2017-07-17T01:11:54.115Z,0
2017-07-17T01:12:20.261Z,0
2017-07-17T01:12:46.411Z,0
2017-07-17T01:13:12.550Z,0
2017-07-17T01:13:38.686Z,0
2017-07-17T01:14:04.838Z,0
2017-07-17T01:14:30.981Z,0
2017-07-17T01:14:57.127Z,0
2017-07-17T01:15:23.265Z,0
2017-07-17T01:15:49.430Z,0
2017-07-17T01:16:15.585Z,0
2017-07-17T01:16:41.724Z,0
2017-07-17T01:17:07.861Z,0
2017-07-17T01:17:34.017Z,0
2017-07-17T01:18:00.159Z,0
2017-07-17T01:18:26.298Z,0
2017-07-17T01:18:52.448Z,0
2017-07-17T01:19:18.588Z,0
2017-07-17T01:19:44.727Z,0
2017-07-17T01:20:10.880Z,0
2017-07-17T01:20:37.011Z,0
2017-07-17T01:21:03.168Z,0
2017-07-17T01:21:29.310Z,0
2017-07-17T01:21:55.444Z,0
2017-07-17T01:22:21.606Z,0
2017-07-17T01:22:47.736Z,0
2017-07-17T01:23:13.870Z,0
2017-07-17T01:23:40.019Z,0
2017-07-17T01:24:06.171Z,0
2017-07-17T01:24:32.303Z,0
2017-07-17T01:24:58.449Z,0
2017-07-17T01:25:24.598Z,0
2017-07-17T01:25:50.735Z,0
2017-07-17T01:26:16.888Z,0
2017-07-17T01:26:43.021Z,0
2017-07-17T01:27:09.169Z,0
2017-07-17T01:27:35.322Z,0
2017-07-17T01:28:01.452Z,0
2017-07-17T01:28:27.604Z,0
2017-07-17T01:28:53.747Z,0
2017-07-17T01:29:19.881Z,0
2017-07-17T01:29:46.018Z,0
2017-07-17T01:30:12.201Z,0
2017-07-17T01:30:38.338Z,0
2017-07-17T01:31:04.476Z,0
2017-07-17T01:31:30.624Z,0
2017-07-17T01:31:56.770Z,0
2017-07-17T01:32:22.949Z,0
2017-07-17T01:32:49.086Z,0
2017-07-17T01:33:15.231Z,0
2017-07-17T01:33:41.379Z,0
2017-07-17T01:34:07.543Z,0
2017-07-17T01:34:33.680Z,0
2017-07-17T01:34:59.831Z,0
2017-07-17T01:35:25.973Z,0
2017-07-17T01:35:52.108Z,0
2017-07-17T01:36:18.260Z,0
2017-07-17T01:36:44.403Z,0
2017-07-17T01:37:10.550Z,0
2017-07-17T01:37:36.691Z,0
2017-07-17T01:38:02.824Z,0
2017-07-17T01:38:28.980Z,0
2017-07-17T01:38:55.118Z,0
2017-07-17T01:39:21.255Z,0
2017-07-17T01:39:47.404Z,0
2017-07-17T01:40:13.548Z,0
2017-07-17T01:40:39.682Z,0
2017-07-17T01:41:05.831Z,0
2017-07-17T01:41:31.981Z,0
2017-07-17T01:41:58.139Z,0
2017-07-17T01:42:24.283Z,0
2017-07-17T01:42:50.426Z,0
2017-07-17T01:43:16.578Z,0
2017-07-17T01:43:42.750Z,0
2017-07-17T01:44:08.885Z,0
2017-07-17T01:44:35.034Z,0
2017-07-17T01:45:01.186Z,0
2017-07-17T01:45:27.320Z,0
2017-07-17T01:45:53.462Z,0
2017-07-17T01:46:19.613Z,0
2017-07-17T01:46:45.750Z,0
2017-07-17T01:47:11.894Z,0
2017-07-17T01:47:38.043Z,0
2017-07-17T01:48:04.181Z,0
2017-07-17T01:48:30.336Z,0
2017-07-17T01:48:56.468Z,0
2017-07-17T01:49:22.613Z,0
2017-07-17T01:49:48.765Z,0
2017-07-17T01:50:14.900Z,0
2017-07-17T01:50:41.040Z,0
2017-07-17T01:51:07.218Z,0
2017-07-17T01:51:33.354Z,0
2017-07-17T01:51:59.492Z,0
2017-07-17T01:52:25.643Z,0
2017-07-17T01:52:51.787Z,0
2017-07-17T01:53:17.922Z,0
2017-07-17T01:53:44.070Z,0
2017-07-17T01:54:10.216Z,0
2017-07-17T01:54:36.350Z,0
2017-07-17T01:55:02.496Z,0
2017-07-17T01:55:28.649Z,0
2017-07-17T01:55:54.779Z,0
2017-07-17T01:56:20.926Z,0
2017-07-17T01:56:47.073Z,0
2017-07-17T01:57:13.214Z,0
2017-07-17T01:57:39.353Z,0
2017-07-17T01:58:05.508Z,0
2017-07-17T01:58:31.668Z,0
2017-07-17T01:58:57.806Z,0
2017-07-17T01:59:23.956Z,0
2017-07-17T01:59:50.103Z,0
2017-07-17T02:00:16.258Z,0
2017-07-17T02:00:42.392Z,0
2017-07-17T02:01:08.532Z,0
2017-07-17T02:01:34.684Z,0
2017-07-17T02:02:00.822Z,0
2017-07-17T02:02:26.954Z,0
2017-07-17T02:02:53.111Z,0
2017-07-17T02:03:19.250Z,0
2017-07-17T02:03:45.420Z,0
2017-07-17T02:04:11.536Z,0
2017-07-17T02:04:37.683Z,0
2017-07-17T02:05:03.827Z,0
2017-07-17T02:05:29.966Z,0
2017-07-17T02:05:56.097Z,0
2017-07-17T02:06:22.253Z,0
2017-07-17T02:06:48.394Z,0
2017-07-17T02:07:14.526Z,0
2017-07-17T02:07:40.675Z,0
2017-07-17T02:08:06.822Z,0
2017-07-17T02:08:32.954Z,0
2017-07-17T02:08:59.091Z,0
2017-07-17T02:09:25.209Z,0
2017-07-17T02:09:51.341Z,0
2017-07-17T02:10:17.463Z,0
2017-07-17T02:10:43.590Z,0
2017-07-17T02:11:09.705Z,0
2017-07-17T02:11:35.830Z,0
2017-07-17T02:12:01.961Z,0
2017-07-17T02:12:28.083Z,0
2017-07-17T02:12:54.198Z,0
2017-07-17T02:13:20.336Z,0
2017-07-17T02:13:46.479Z,0
2017-07-17T02:14:12.596Z,0
2017-07-17T02:14:38.730Z,0
2017-07-17T02:15:04.856Z,0
2017-07-17T02:15:30.973Z,0
2017-07-17T02:15:57.101Z,0
2017-07-17T02:16:23.217Z,0
2017-07-17T02:16:49.352Z,0
2017-07-17T02:17:15.474Z,0
2017-07-17T02:17:41.591Z,0
2017-07-17T02:18:07.723Z,0
2017-07-17T02:18:33.850Z,0
2017-07-17T02:18:59.969Z,0
2017-07-17T02:19:26.098Z,0
2017-07-17T02:19:52.232Z,0
2017-07-17T02:20:18.346Z,0
2017-07-17T02:20:44.472Z,0
2017-07-17T02:21:10.606Z,0
2017-07-17T02:21:36.724Z,0
2017-07-17T02:22:02.854Z,0
2017-07-17T02:22:28.969Z,0
2017-07-17T02:22:55.101Z,0
2017-07-17T02:23:21.236Z,0
2017-07-17T02:23:47.351Z,0
2017-07-17T02:24:13.480Z,0
2017-07-17T02:24:39.612Z,0
2017-07-17T02:25:05.727Z,0
2017-07-17T02:25:31.855Z,0
2017-07-17T02:25:57.986Z,0
2017-07-17T02:26:24.109Z,0
2017-07-17T02:26:50.225Z,0
2017-07-17T02:27:16.356Z,0
2017-07-17T02:27:42.482Z,0
2017-07-17T02:28:08.615Z,0
2017-07-17T02:28:34.732Z,0
2017-07-17T02:29:00.855Z,0
2017-07-17T02:29:26.987Z,0
2017-07-17T02:29:53.107Z,0
2017-07-17T02:30:19.224Z,0
2017-07-17T02:30:45.359Z,0
2017-07-17T02:31:11.481Z,0
2017-07-17T02:31:37.598Z,0
2017-07-17T02:32:03.731Z,0
2017-07-17T02:32:29.857Z,0
2017-07-17T02:32:55.983Z,0
2017-07-17T02:33:22.103Z,0
2017-07-17T02:33:48.217Z,0
2017-07-17T02:34:14.351Z,0
2017-07-17T02:34:40.513Z,0
2017-07-17T02:35:06.588Z,0
2017-07-17T02:35:32.723Z,0
2017-07-17T02:35:58.849Z,0
2017-07-17T02:36:24.964Z,0
2017-07-17T02:36:51.092Z,0
2017-07-17T02:37:17.222Z,0
2017-07-17T02:37:43.335Z,0
2017-07-17T02:38:09.463Z,0
2017-07-17T02:38:35.596Z,0
2017-07-17T02:39:01.712Z,0
2017-07-17T02:39:27.836Z,0
2017-07-17T02:39:53.970Z,0
2017-07-17T02:40:20.098Z,0
2017-07-17T02:40:46.206Z,0
2017-07-17T02:41:12.364Z,0
2017-07-17T02:41:38.486Z,0
2017-07-17T02:42:04.603Z,0
2017-07-17T02:42:30.734Z,0
2017-07-17T02:42:56.860Z,0
2017-07-17T02:43:22.977Z,0
2017-07-17T02:43:49.106Z,0
2017-07-17T02:44:15.225Z,0
2017-07-17T02:44:41.361Z,0
2017-07-17T02:45:07.484Z,0
2017-07-17T02:45:33.601Z,0
2017-07-17T02:45:59.835Z,0
2017-07-17T02:46:25.960Z,0
2017-07-17T02:46:52.077Z,0
2017-07-17T02:47:18.212Z,0
2017-07-17T02:47:44.339Z,0
2017-07-17T02:48:10.456Z,0
2017-07-17T02:48:36.581Z,0
2017-07-17T02:49:02.714Z,0
2017-07-17T02:49:28.829Z,0
2017-07-17T02:49:54.958Z,0
2017-07-17T02:50:21.076Z,0
2017-07-17T02:50:47.206Z,0
2017-07-17T02:51:13.335Z,0
2017-07-17T02:51:39.447Z,0
2017-07-17T02:52:05.575Z,0
2017-07-17T02:52:31.709Z,0
2017-07-17T02:52:57.826Z,0
2017-07-17T02:53:23.949Z,0
2017-07-17T02:53:50.081Z,0
2017-07-17T02:54:16.199Z,0
2017-07-17T02:54:42.317Z,0
2017-07-17T02:55:08.448Z,0
2017-07-17T02:55:34.571Z,0
2017-07-17T02:56:00.703Z,0
2017-07-17T02:56:26.820Z,0
2017-07-17T02:56:52.943Z,0
2017-07-17T02:57:19.076Z,0
2017-07-17T02:57:45.198Z,0
2017-07-17T02:58:11.315Z,4
2017-07-17T02:58:37.451Z,4
2017-07-17T02:59:03.574Z,4
2017-07-17T02:59:29.690Z,4
2017-07-17T02:59:55.824Z,4
2017-07-17T03:00:21.953Z,4
2017-07-17T03:00:48.078Z,4
2017-07-17T03:01:14.198Z,0
2017-07-17T03:01:40.315Z,0
2017-07-17T03:02:06.449Z,4
2017-07-17T03:02:32.569Z,4
2017-07-17T03:02:58.688Z,4
2017-07-17T03:03:24.820Z,4
2017-07-17T03:03:50.944Z,4
2017-07-17T03:04:17.061Z,4
2017-07-17T03:04:43.191Z,4
2017-07-17T03:05:09.326Z,4
2017-07-17T03:05:35.441Z,4
2017-07-17T03:06:01.566Z,4
2017-07-17T03:06:27.686Z,4
2017-07-17T03:06:53.818Z,4
2017-07-17T03:07:19.942Z,4
2017-07-17T03:07:46.062Z,4
2017-07-17T03:08:12.190Z,4
2017-07-17T03:08:38.323Z,4
2017-07-17T03:09:04.435Z,4
2017-07-17T03:09:30.563Z,8
2017-07-17T03:09:56.696Z,8
2017-07-17T03:10:22.814Z,4
2017-07-17T03:10:48.938Z,8
2017-07-17T03:11:15.071Z,8
2017-07-17T03:11:41.190Z,8
2017-07-17T03:12:07.324Z,8
2017-07-17T03:12:33.438Z,8
2017-07-17T03:12:59.564Z,12
2017-07-17T03:13:25.697Z,8
2017-07-17T03:13:51.814Z,8
2017-07-17T03:14:17.936Z,12
2017-07-17T03:14:44.067Z,16
2017-07-17T03:15:10.187Z,16
2017-07-17T03:15:36.342Z,16
2017-07-17T03:16:02.479Z,16
2017-07-17T03:16:28.602Z,16
2017-07-17T03:16:54.717Z,20
2017-07-17T03:17:20.853Z,20
2017-07-17T03:17:46.972Z,24
2017-07-17T03:18:13.102Z,24
2017-07-17T03:18:39.233Z,24
2017-07-17T03:19:05.338Z,28
2017-07-17T03:19:31.473Z,28
2017-07-17T03:19:57.599Z,36
2017-07-17T03:20:23.717Z,36
2017-07-17T03:20:49.849Z,40
2017-07-17T03:21:15.975Z,40
2017-07-17T03:21:42.090Z,44
2017-07-17T03:22:08.222Z,44
2017-07-17T03:22:34.355Z,48
2017-07-17T03:23:00.470Z,48
2017-07-17T03:23:26.594Z,52
2017-07-17T03:23:52.731Z,56
2017-07-17T03:24:18.845Z,56
2017-07-17T03:24:44.969Z,60
2017-07-17T03:25:11.103Z,64
2017-07-17T03:25:37.225Z,68
2017-07-17T03:26:03.341Z,72
2017-07-17T03:26:29.483Z,76
2017-07-17T03:26:55.601Z,88
2017-07-17T03:27:21.717Z,92
2017-07-17T03:27:47.850Z,100
2017-07-17T03:28:13.976Z,112
2017-07-17T03:28:40.102Z,120
2017-07-17T03:29:06.220Z,124
2017-07-17T03:29:32.336Z,132
2017-07-17T03:29:58.473Z,136
2017-07-17T03:30:24.598Z,140
2017-07-17T03:30:50.714Z,144
2017-07-17T03:31:16.848Z,148
2017-07-17T03:31:42.974Z,156
2017-07-17T03:32:09.090Z,160
2017-07-17T03:32:35.222Z,164
2017-07-17T03:33:01.355Z,172
2017-07-17T03:33:27.472Z,180
2017-07-17T03:33:53.599Z,188
2017-07-17T03:34:19.718Z,196
2017-07-17T03:34:45.851Z,204
2017-07-17T03:35:11.977Z,200
2017-07-17T03:35:38.094Z,196
2017-07-17T03:36:04.223Z,192
2017-07-17T03:36:30.352Z,184
2017-07-17T03:36:56.465Z,176
2017-07-17T03:37:22.590Z,168
2017-07-17T03:37:48.723Z,164
2017-07-17T03:38:14.841Z,152
2017-07-17T03:38:40.966Z,152
2017-07-17T03:39:07.099Z,152
2017-07-17T03:39:33.217Z,152
2017-07-17T03:39:59.351Z,152
2017-07-17T03:40:25.466Z,156
2017-07-17T03:40:51.592Z,160
2017-07-17T03:41:17.725Z,164
2017-07-17T03:41:43.849Z,164
2017-07-17T03:42:09.968Z,168
2017-07-17T03:42:36.101Z,160
2017-07-17T03:43:02.221Z,156
2017-07-17T03:43:28.358Z,156
2017-07-17T03:43:54.492Z,156
2017-07-17T03:44:20.614Z,152
2017-07-17T03:44:46.732Z,152
2017-07-17T03:45:12.864Z,148
2017-07-17T03:45:38.982Z,156
2017-07-17T03:46:05.114Z,156
2017-07-17T03:46:31.234Z,164
2017-07-17T03:46:57.353Z,172
2017-07-17T03:47:23.490Z,180
2017-07-17T03:47:49.613Z,192
2017-07-17T03:48:15.729Z,204
2017-07-17T03:48:41.866Z,212
2017-07-17T03:49:07.990Z,216
2017-07-17T03:49:34.107Z,228
2017-07-17T03:50:00.234Z,240
2017-07-17T03:50:26.365Z,244
2017-07-17T03:50:52.506Z,240
2017-07-17T03:51:18.629Z,240
2017-07-17T03:51:44.748Z,240
2017-07-17T03:52:10.879Z,248
2017-07-17T03:52:37.005Z,244
2017-07-17T03:53:03.121Z,240
2017-07-17T03:53:29.252Z,236
2017-07-17T03:53:55.379Z,228
2017-07-17T03:54:21.491Z,220
2017-07-17T03:54:47.618Z,220
2017-07-17T03:55:13.752Z,216
2017-07-17T03:55:39.870Z,212
2017-07-17T03:56:05.992Z,212
2017-07-17T03:56:32.117Z,216
2017-07-17T03:56:58.247Z,220
2017-07-17T03:57:24.380Z,228
2017-07-17T03:57:50.494Z,240
2017-07-17T03:58:16.622Z,260
2017-07-17T03:58:42.755Z,272
2017-07-17T03:59:08.872Z,280
2017-07-17T03:59:34.994Z,288
2017-07-17T04:00:01.128Z,284
2017-07-17T04:00:27.247Z,284
2017-07-17T04:00:53.364Z,272
2017-07-17T04:01:19.497Z,260
2017-07-17T04:01:45.618Z,252
2017-07-17T04:02:11.747Z,244
2017-07-17T04:02:37.863Z,236
2017-07-17T04:03:03.987Z,236
2017-07-17T04:03:30.121Z,232
2017-07-17T04:03:56.242Z,236
2017-07-17T04:04:22.358Z,244
2017-07-17T04:04:48.494Z,256
2017-07-17T04:05:14.617Z,268
2017-07-17T04:05:40.736Z,288
2017-07-17T04:06:06.869Z,312
2017-07-17T04:06:32.996Z,336
2017-07-17T04:06:59.113Z,356
2017-07-17T04:07:25.241Z,380
2017-07-17T04:07:51.371Z,400
2017-07-17T04:08:17.486Z,416
2017-07-17T04:08:43.612Z,436
2017-07-17T04:09:09.744Z,452
2017-07-17T04:09:35.859Z,472
2017-07-17T04:10:01.982Z,492
2017-07-17T04:10:28.136Z,516
2017-07-17T04:10:54.256Z,536
2017-07-17T04:11:20.373Z,564
2017-07-17T04:11:46.508Z,584
2017-07-17T04:12:12.631Z,604
2017-07-17T04:12:38.748Z,624
2017-07-17T04:13:04.902Z,632
2017-07-17T04:13:31.022Z,648
2017-07-17T04:13:57.154Z,668
2017-07-17T04:14:23.273Z,688
2017-07-17T04:14:49.389Z,716
2017-07-17T04:15:15.528Z,748
2017-07-17T04:15:41.653Z,776
2017-07-17T04:16:07.769Z,808
2017-07-17T04:16:33.901Z,832
2017-07-17T04:17:00.027Z,848
2017-07-17T04:17:26.143Z,868
2017-07-17T04:17:52.275Z,888
2017-07-17T04:18:18.409Z,912
2017-07-17T04:18:44.530Z,940
2017-07-17T04:19:10.654Z,976
2017-07-17T04:19:36.771Z,1020
2017-07-17T04:20:02.905Z,1064
2017-07-17T04:20:29.032Z,1100
2017-07-17T04:20:55.149Z,1148
2017-07-17T04:21:21.277Z,1204
2017-07-17T04:21:47.410Z,1272
2017-07-17T04:22:13.525Z,1368
2017-07-17T04:22:39.650Z,1488
2017-07-17T04:23:05.779Z,1624
2017-07-17T04:23:31.895Z,1768
2017-07-17T04:23:58.018Z,1916
2017-07-17T04:24:24.141Z,2032
2017-07-17T04:24:50.270Z,2128
2017-07-17T04:25:16.404Z,2164
2017-07-17T04:25:42.522Z,2148
2017-07-17T04:26:08.643Z,2112
2017-07-17T04:26:34.773Z,2092
2017-07-17T04:27:00.889Z,2116
2017-07-17T04:27:27.011Z,2172
2017-07-17T04:27:53.145Z,2236
2017-07-17T04:28:19.266Z,2292
2017-07-17T04:28:45.383Z,2320
2017-07-17T04:29:11.519Z,2320
2017-07-17T04:29:37.643Z,2300
2017-07-17T04:30:03.772Z,2236
2017-07-17T04:30:29.888Z,2152
2017-07-17T04:30:56.013Z,2048
2017-07-17T04:31:22.167Z,1944
2017-07-17T04:31:48.288Z,1872
2017-07-17T04:32:14.406Z,1812
2017-07-17T04:32:40.542Z,1760
2017-07-17T04:33:06.665Z,1696
2017-07-17T04:33:32.782Z,1624
2017-07-17T04:33:58.913Z,1536
2017-07-17T04:34:25.037Z,1448
2017-07-17T04:34:51.156Z,1364
2017-07-17T04:35:17.285Z,1292
2017-07-17T04:35:43.401Z,1240
2017-07-17T04:36:09.541Z,1212
2017-07-17T04:36:35.660Z,1212
2017-07-17T04:37:01.776Z,1244
2017-07-17T04:37:27.909Z,1308
2017-07-17T04:37:54.036Z,1388
2017-07-17T04:38:20.152Z,1500
2017-07-17T04:38:46.282Z,1636
2017-07-17T04:39:12.414Z,1796
2017-07-17T04:39:38.527Z,1972
2017-07-17T04:40:04.653Z,2156
2017-07-17T04:40:30.792Z,2352
2017-07-17T04:40:56.900Z,2524
2017-07-17T04:41:23.032Z,2644
2017-07-17T04:41:49.145Z,2684
2017-07-17T04:42:15.273Z,2664
2017-07-17T04:42:41.404Z,2600
2017-07-17T04:43:07.516Z,2520
2017-07-17T04:43:33.642Z,2444
2017-07-17T04:43:59.775Z,2412
2017-07-17T04:44:25.894Z,2460
2017-07-17T04:44:52.016Z,2568
2017-07-17T04:45:18.150Z,2668
2017-07-17T04:45:44.268Z,2788
2017-07-17T04:46:10.384Z,2924
2017-07-17T04:46:36.517Z,3132
2017-07-17T04:47:02.641Z,3356
2017-07-17T04:47:28.772Z,3532
2017-07-17T04:47:54.890Z,3800
2017-07-17T04:48:21.032Z,4048
2017-07-17T04:48:47.163Z,4180
2017-07-17T04:49:13.281Z,4192
2017-07-17T04:49:39.400Z,4036
2017-07-17T04:50:05.538Z,3700
2017-07-17T04:50:31.663Z,3344
2017-07-17T04:50:57.779Z,3076
2017-07-17T04:51:23.911Z,2908
2017-07-17T04:51:50.038Z,2816
2017-07-17T04:52:16.154Z,2788
2017-07-17T04:52:42.282Z,2788
2017-07-17T04:53:08.414Z,2776
2017-07-17T04:53:34.527Z,2800
2017-07-17T04:54:00.654Z,2812
2017-07-17T04:54:26.786Z,2816
2017-07-17T04:54:52.902Z,2804
2017-07-17T04:55:19.028Z,2800
2017-07-17T04:55:45.160Z,2804
2017-07-17T04:56:11.280Z,2828
2017-07-17T04:56:37.397Z,2868
2017-07-17T04:57:03.533Z,2932
2017-07-17T04:57:29.656Z,3028
2017-07-17T04:57:55.788Z,3252
2017-07-17T04:58:21.908Z,3528
2017-07-17T04:58:48.032Z,3844
2017-07-17T04:59:14.188Z,3936
2017-07-17T04:59:40.308Z,4028
2017-07-17T05:00:06.425Z,4272
2017-07-17T05:00:32.563Z,4576
2017-07-17T05:00:58.685Z,5000
2017-07-17T05:01:24.799Z,5312
2017-07-17T05:01:50.935Z,5612
2017-07-17T05:02:17.061Z,5888
2017-07-17T05:02:43.180Z,6224
2017-07-17T05:03:09.309Z,6664
2017-07-17T05:03:35.426Z,7328
2017-07-17T05:04:01.565Z,8168
2017-07-17T05:04:27.684Z,8736
2017-07-17T05:04:53.802Z,8996
2017-07-17T05:05:19.934Z,9056
2017-07-17T05:05:46.058Z,9216
2017-07-17T05:06:12.174Z,9344
2017-07-17T05:06:38.303Z,9304
2017-07-17T05:07:04.436Z,9368
2017-07-17T05:07:30.549Z,9580
2017-07-17T05:07:56.676Z,9952
2017-07-17T05:08:22.809Z,10588
2017-07-17T05:08:48.926Z,11728
2017-07-17T05:09:15.057Z,12732
2017-07-17T05:09:41.173Z,13064
2017-07-17T05:10:07.301Z,12052
2017-07-17T05:10:33.432Z,11284
2017-07-17T05:10:59.565Z,10524
2017-07-17T05:11:25.691Z,9696
2017-07-17T05:11:51.824Z,8940
2017-07-17T05:12:17.941Z,8224
2017-07-17T05:12:44.064Z,7872
2017-07-17T05:13:10.197Z,7744
2017-07-17T05:13:36.317Z,7760
2017-07-17T05:14:02.440Z,7928
2017-07-17T05:14:28.569Z,8204
2017-07-17T05:14:54.696Z,8624
2017-07-17T05:15:20.831Z,9024
2017-07-17T05:15:46.948Z,9164
2017-07-17T05:16:13.070Z,8816
2017-07-17T05:16:39.200Z,8628
2017-07-17T05:17:05.319Z,8332
2017-07-17T05:17:31.437Z,8016
2017-07-17T05:17:57.573Z,7704
2017-07-17T05:18:23.698Z,7724
2017-07-17T05:18:49.815Z,7964
2017-07-17T05:19:15.948Z,8200
2017-07-17T05:19:42.075Z,8664
2017-07-17T05:20:08.202Z,8948
2017-07-17T05:20:34.321Z,9892
2017-07-17T05:21:00.439Z,11740
2017-07-17T05:21:26.576Z,12796
2017-07-17T05:21:52.700Z,13436
2017-07-17T05:22:18.816Z,13380
2017-07-17T05:22:44.946Z,13680
2017-07-17T05:23:11.073Z,13692
2017-07-17T05:23:37.191Z,13984
2017-07-17T05:24:03.321Z,13240
2017-07-17T05:24:29.454Z,12852
2017-07-17T05:24:55.566Z,11976
2017-07-17T05:25:21.844Z,10984
2017-07-17T05:25:47.963Z,10012
2017-07-17T05:26:14.094Z,8988
2017-07-17T05:26:40.219Z,8268
2017-07-17T05:27:06.337Z,7520
2017-07-17T05:27:32.486Z,6696
2017-07-17T05:27:58.643Z,6300
2017-07-17T05:28:24.756Z,6180
2017-07-17T05:28:50.885Z,5848
2017-07-17T05:29:17.025Z,5488
2017-07-17T05:29:43.143Z,5148
2017-07-17T05:30:09.286Z,4828
2017-07-17T05:30:35.417Z,4720
2017-07-17T05:31:01.543Z,4892
2017-07-17T05:31:27.691Z,5340
2017-07-17T05:31:53.805Z,5552
2017-07-17T05:32:19.930Z,5728
2017-07-17T05:32:46.064Z,6224
2017-07-17T05:33:12.182Z,6692
2017-07-17T05:33:38.304Z,6716
2017-07-17T05:34:04.436Z,6028
2017-07-17T05:34:30.557Z,5008
2017-07-17T05:34:56.674Z,4304
2017-07-17T05:35:22.809Z,3820
2017-07-17T05:35:48.932Z,3640
2017-07-17T05:36:15.047Z,3964
2017-07-17T05:36:41.183Z,4284
2017-07-17T05:37:07.310Z,4624
2017-07-17T05:37:33.429Z,4920
2017-07-17T05:37:59.559Z,4948
2017-07-17T05:38:25.691Z,4744
2017-07-17T05:38:51.805Z,4344
2017-07-17T05:39:17.933Z,4208
2017-07-17T05:39:44.067Z,4472
2017-07-17T05:40:10.187Z,4832
2017-07-17T05:40:36.311Z,5156
2017-07-17T05:41:02.443Z,5308
2017-07-17T05:41:28.564Z,5300
2017-07-17T05:41:54.681Z,5344
2017-07-17T05:42:20.813Z,5132
2017-07-17T05:42:46.941Z,5160
2017-07-17T05:43:13.074Z,5260
2017-07-17T05:43:39.191Z,5408
2017-07-17T05:44:05.314Z,5744
2017-07-17T05:44:31.448Z,6116
2017-07-17T05:44:57.568Z,6364
2017-07-17T05:45:23.686Z,6800
2017-07-17T05:45:49.822Z,7156
2017-07-17T05:46:15.947Z,7712
2017-07-17T05:46:42.061Z,8368
2017-07-17T05:47:08.192Z,8904
2017-07-17T05:47:34.318Z,8844
2017-07-17T05:48:00.446Z,7744
2017-07-17T05:48:26.567Z,6436
2017-07-17T05:48:52.695Z,5728
2017-07-17T05:49:18.819Z,5732
2017-07-17T05:49:44.943Z,5928
2017-07-17T05:50:11.060Z,5760
2017-07-17T05:50:37.191Z,5608
2017-07-17T05:51:03.316Z,5704
2017-07-17T05:51:29.432Z,5768
2017-07-17T05:51:55.592Z,5904
2017-07-17T05:52:21.786Z,6276
2017-07-17T05:52:47.898Z,6932
2017-07-17T05:53:14.262Z,7632
2017-07-17T05:53:40.381Z,8296
2017-07-17T05:54:06.515Z,9316
2017-07-17T05:54:32.642Z,10796
2017-07-17T05:54:58.761Z,11824
2017-07-17T05:55:24.887Z,12040
2017-07-17T05:55:51.020Z,12196
2017-07-17T05:56:17.155Z,12268
2017-07-17T05:56:43.280Z,12168
2017-07-17T05:57:09.434Z,12516
2017-07-17T05:57:35.552Z,13104
2017-07-17T05:58:01.675Z,13712
2017-07-17T05:58:27.806Z,13916
2017-07-17T05:58:53.930Z,14140
2017-07-17T05:59:20.047Z,14408
2017-07-17T05:59:46.180Z,14872
2017-07-17T06:00:12.304Z,15200
2017-07-17T06:00:38.570Z,16116
2017-07-17T06:01:04.702Z,16676
2017-07-17T06:01:30.830Z,16880
2017-07-17T06:01:56.944Z,15648
2017-07-17T06:02:23.078Z,13380
2017-07-17T06:02:49.213Z,11828
2017-07-17T06:03:15.326Z,11456
2017-07-17T06:03:41.451Z,11572
2017-07-17T06:04:07.585Z,11520
2017-07-17T06:04:33.702Z,11196
2017-07-17T06:04:59.832Z,11616
2017-07-17T06:05:25.951Z,12324
2017-07-17T06:05:52.079Z,12976
2017-07-17T06:06:18.211Z,12956
2017-07-17T06:06:44.324Z,12328
2017-07-17T06:07:10.451Z,11332
2017-07-17T06:07:36.584Z,10500
2017-07-17T06:08:02.703Z,9988
2017-07-17T06:08:28.827Z,9756
2017-07-17T06:08:54.961Z,9756